createdAt,value
2017-10-19T00:00:43.826Z,100393.77
2017-10-19T00:01:49.826Z,100394.34
2017-10-19T00:02:56.274Z,100397.00
2017-10-19T00:04:01.948Z,100392.31
2017-10-19T00:05:09.735Z,100396.86
2017-10-19T00:06:15.858Z,100395.94
2017-10-19T00:07:21.992Z,100394.80
2017-10-19T00:08:27.938Z,100395.30
2017-10-19T00:09:34.118Z,100401.44
2017-10-19T00:10:40.254Z,100390.84
2017-10-19T00:11:46.522Z,100395.34
2017-10-19T00:12:52.895Z,100389.25
2017-10-19T00:14:01.790Z,100393.51
2017-10-19T00:15:09.315Z,100396.32
2017-10-19T00:16:16.440Z,100402.75
2017-10-19T00:17:22.718Z,100401.34
2017-10-19T00:18:30.778Z,100395.41
2017-10-19T00:19:36.967Z,100396.09
2017-10-19T00:20:43.060Z,100397.77
2017-10-19T00:21:49.008Z,100390.60
2017-10-19T00:22:55.181Z,100397.80
2017-10-19T00:24:01.268Z,100395.20
2017-10-19T00:25:07.443Z,100400.16
2017-10-19T00:26:13.557Z,100401.44
2017-10-19T00:27:20.461Z,100400.02
2017-10-19T00:28:26.616Z,100401.74
2017-10-19T00:29:32.735Z,100404.11
2017-10-19T00:30:38.660Z,100407.66
2017-10-19T00:31:44.746Z,100404.27
2017-10-19T00:32:50.499Z,100407.73
2017-10-19T00:33:56.800Z,100407.34
2017-10-19T00:35:02.922Z,100407.41
2017-10-19T00:36:08.843Z,100405.70
2017-10-19T00:37:14.944Z,100409.17
2017-10-19T00:38:20.661Z,100411.33
2017-10-19T00:39:26.433Z,100412.99
2017-10-19T00:40:32.536Z,100412.66
2017-10-19T00:41:38.635Z,100408.55
2017-10-19T00:42:44.598Z,100405.06
2017-10-19T00:43:50.690Z,100406.81
2017-10-19T00:44:56.881Z,100407.66
2017-10-19T00:46:03.013Z,100409.41
2017-10-19T00:47:09.171Z,100408.23
2017-10-19T00:48:18.913Z,100411.80
2017-10-19T00:49:25.121Z,100410.63
2017-10-19T00:50:31.236Z,100408.31
2017-10-19T00:51:37.572Z,100411.96
2017-10-19T00:52:43.654Z,100407.41
2017-10-19T00:53:49.376Z,100409.89
2017-10-19T00:54:55.446Z,100406.43
2017-10-19T00:56:01.196Z,100400.62
2017-10-19T00:57:06.759Z,100407.29
2017-10-19T00:58:12.073Z,100401.50
2017-10-19T00:59:17.627Z,100400.90
2017-10-19T01:00:22.825Z,100400.41
2017-10-19T01:01:27.340Z,100397.86
2017-10-19T01:02:33.078Z,100399.23
2017-10-19T01:03:39.163Z,100399.22
2017-10-19T01:04:45.256Z,100400.00
2017-10-19T01:05:51.368Z,100396.72
2017-10-19T01:06:57.450Z,100393.02
2017-10-19T01:08:03.578Z,100398.09
2017-10-19T01:09:09.688Z,100401.51
2017-10-19T01:10:15.869Z,100396.20
2017-10-19T01:11:27.033Z,100397.36
2017-10-19T01:12:32.789Z,100399.30
2017-10-19T01:13:38.348Z,100401.53
2017-10-19T01:14:44.042Z,100406.08
2017-10-19T01:15:50.652Z,100399.80
2017-10-19T01:16:56.543Z,100406.30
2017-10-19T01:18:03.141Z,100397.50
2017-10-19T01:19:08.522Z,100398.01
2017-10-19T01:20:13.880Z,100403.78
2017-10-19T01:21:19.281Z,100400.86
2017-10-19T01:22:24.655Z,100398.33
2017-10-19T01:23:30.117Z,100399.20
2017-10-19T01:24:35.184Z,100398.97
2017-10-19T01:25:40.574Z,100397.72
2017-10-19T01:26:45.928Z,100393.13
2017-10-19T01:27:51.649Z,100395.53
2017-10-19T01:28:57.074Z,100396.27
2017-10-19T01:30:02.467Z,100391.86
2017-10-19T01:31:07.665Z,100393.89
2017-10-19T01:32:13.360Z,100399.21
2017-10-19T01:33:19.065Z,100400.85
2017-10-19T01:34:24.402Z,100399.87
2017-10-19T01:35:30.123Z,100399.98
2017-10-19T01:36:35.470Z,100400.54
2017-10-19T01:37:41.302Z,100403.07
2017-10-19T01:38:46.657Z,100400.69
2017-10-19T01:39:52.226Z,100398.37
2017-10-19T01:40:57.618Z,100400.84
2017-10-19T01:42:03.961Z,100404.80
2017-10-19T01:43:09.855Z,100403.91
2017-10-19T01:44:15.252Z,100397.72
2017-10-19T01:45:20.637Z,100399.14
2017-10-19T01:46:26.381Z,100405.59
2017-10-19T01:47:31.867Z,100404.06
2017-10-19T01:48:37.567Z,100401.73
2017-10-19T01:50:00.777Z,100402.98
2017-10-19T01:51:06.172Z,100406.73
2017-10-19T01:52:12.191Z,100400.25
2017-10-19T01:53:18.307Z,100404.36
2017-10-19T01:54:24.411Z,100403.50
2017-10-19T01:55:30.150Z,100399.80
2017-10-19T01:56:36.257Z,100394.38
2017-10-19T01:57:44.193Z,100393.80
2017-10-19T01:58:49.911Z,100386.84
2017-10-19T01:59:55.965Z,100393.06
2017-10-19T02:01:01.873Z,100391.38
2017-10-19T02:02:08.499Z,100390.17
2017-10-19T02:03:22.879Z,100382.95
2017-10-19T02:04:32.923Z,100388.14
2017-10-19T02:05:39.071Z,100380.08
2017-10-19T02:06:44.854Z,100384.86
2017-10-19T02:07:50.616Z,100387.96
2017-10-19T02:08:56.334Z,100387.27
2017-10-19T02:10:02.423Z,100390.88
2017-10-19T02:11:08.561Z,100385.10
2017-10-19T02:12:14.633Z,100389.55
2017-10-19T02:13:20.774Z,100386.95
2017-10-19T02:14:26.528Z,100392.29
2017-10-19T02:15:31.922Z,100398.01
2017-10-19T02:16:38.017Z,100399.06
2017-10-19T02:17:44.104Z,100397.28
2017-10-19T02:18:50.199Z,100398.80
2017-10-19T02:19:55.974Z,100394.00
2017-10-19T02:21:02.115Z,100396.15
2017-10-19T02:22:08.546Z,100399.14
2017-10-19T02:23:14.659Z,100399.57
2017-10-19T02:24:20.660Z,100396.31
2017-10-19T02:25:26.816Z,100401.78
2017-10-19T02:26:33.002Z,100399.30
2017-10-19T02:27:39.135Z,100399.73
2017-10-19T02:28:45.213Z,100401.39
2017-10-19T02:31:33.848Z,100401.23
2017-10-19T02:32:39.947Z,100397.29
2017-10-19T02:33:46.056Z,100399.20
2017-10-19T02:34:55.437Z,100398.30
2017-10-19T02:36:01.586Z,100403.13
2017-10-19T02:37:07.699Z,100404.42
2017-10-19T02:38:13.627Z,100406.35
2017-10-19T02:39:19.763Z,100404.73
2017-10-19T02:40:25.913Z,100405.60
2017-10-19T02:41:32.029Z,100404.74
2017-10-19T02:42:38.191Z,100408.48
2017-10-19T02:43:44.127Z,100403.75
2017-10-19T02:44:50.240Z,100402.78
2017-10-19T02:45:56.379Z,100402.84
2017-10-19T02:47:02.483Z,100406.88
2017-10-19T02:48:08.634Z,100401.27
2017-10-19T02:49:14.756Z,100399.63
2017-10-19T02:50:20.896Z,100410.64
2017-10-19T02:51:27.024Z,100403.81
2017-10-19T02:52:32.821Z,100404.80
2017-10-19T02:53:38.948Z,100404.09
2017-10-19T02:54:44.695Z,100400.83
2017-10-19T02:55:50.475Z,100401.06
2017-10-19T02:56:59.391Z,100402.16
2017-10-19T02:58:05.304Z,100397.26
2017-10-19T02:59:15.770Z,100403.91
2017-10-19T03:00:21.557Z,100401.95
2017-10-19T03:01:27.487Z,100404.90
2017-10-19T03:02:33.238Z,100406.66
2017-10-19T03:03:39.341Z,100401.00
2017-10-19T03:04:45.627Z,100400.65
2017-10-19T03:05:51.795Z,100400.86
2017-10-19T03:06:57.667Z,100399.52
2017-10-19T03:08:03.602Z,100410.02
2017-10-19T03:09:08.982Z,100408.13
2017-10-19T03:10:15.563Z,100402.59
2017-10-19T03:11:21.680Z,100404.98
2017-10-19T03:12:27.809Z,100404.89
2017-10-19T03:13:33.589Z,100406.33
2017-10-19T03:14:39.671Z,100404.27
2017-10-19T03:15:45.788Z,100408.62
2017-10-19T03:16:51.872Z,100407.59
2017-10-19T03:17:58.112Z,100403.36
2017-10-19T03:19:04.194Z,100402.39
2017-10-19T03:20:10.318Z,100402.37
2017-10-19T03:21:16.464Z,100410.02
2017-10-19T03:22:22.583Z,100412.26
2017-10-19T03:23:28.707Z,100402.83
2017-10-19T03:24:34.807Z,100405.11
2017-10-19T03:25:40.786Z,100409.13
2017-10-19T03:26:46.902Z,100408.13
2017-10-19T03:27:52.986Z,100400.55
2017-10-19T03:28:59.079Z,100404.36
2017-10-19T03:30:05.178Z,100410.64
2017-10-19T03:31:11.324Z,100410.88
2017-10-19T03:32:17.404Z,100410.34
2017-10-19T03:33:23.503Z,100409.40
2017-10-19T03:34:29.278Z,100411.18
2017-10-19T03:35:35.029Z,100407.70
2017-10-19T03:36:41.673Z,100412.37
2017-10-19T03:44:40.081Z,100409.73
2017-10-19T03:46:05.165Z,100411.69
2017-10-19T03:47:25.267Z,100405.95
2017-10-19T03:48:48.143Z,100417.10
2017-10-19T03:50:11.325Z,100416.38
2017-10-19T03:51:21.717Z,100415.37
2017-10-19T03:52:28.722Z,100417.98
2017-10-19T03:53:36.268Z,100422.84
2017-10-19T03:54:42.403Z,100423.32
2017-10-19T03:55:48.614Z,100417.98
2017-10-19T03:56:55.258Z,100416.25
2017-10-19T03:58:01.427Z,100422.95
2017-10-19T03:59:07.701Z,100414.79
2017-10-19T04:00:13.332Z,100413.69
2017-10-19T04:01:22.715Z,100417.19
2017-10-19T04:02:28.930Z,100417.97
2017-10-19T04:03:35.117Z,100427.45
2017-10-19T04:04:47.442Z,100426.33
2017-10-19T04:05:58.664Z,100420.83
2017-10-19T04:07:04.859Z,100425.23
2017-10-19T04:08:10.967Z,100421.94
2017-10-19T04:09:17.756Z,100420.28
2017-10-19T04:10:23.881Z,100423.40
2017-10-19T04:11:30.035Z,100420.73
2017-10-19T04:12:36.271Z,100420.05
2017-10-19T04:13:42.399Z,100413.97
2017-10-19T04:14:48.334Z,100418.11
2017-10-19T04:15:54.452Z,100418.10
2017-10-19T04:17:00.636Z,100418.70
2017-10-19T04:18:06.722Z,100411.50
2017-10-19T04:19:12.922Z,100412.22
2017-10-19T04:20:19.082Z,100405.82
2017-10-19T04:21:25.263Z,100408.17
2017-10-19T04:22:31.461Z,100408.83
2017-10-19T04:23:38.898Z,100411.50
2017-10-19T04:24:46.711Z,100402.52
2017-10-19T04:25:54.609Z,100401.66
2017-10-19T04:27:04.443Z,100404.81
2017-10-19T04:28:10.834Z,100410.20
2017-10-19T04:29:16.943Z,100405.56
2017-10-19T04:30:24.164Z,100414.17
2017-10-19T04:31:34.181Z,100410.07
2017-10-19T04:32:46.477Z,100409.41
2017-10-19T04:33:58.995Z,100413.53
2017-10-19T04:35:11.904Z,100406.03
2017-10-19T04:36:19.140Z,100406.20
2017-10-19T04:37:30.382Z,100403.09
2017-10-19T04:38:39.692Z,100409.35
2017-10-19T04:39:52.488Z,100407.38
2017-10-19T04:41:14.043Z,100407.59
2017-10-19T04:42:28.140Z,100401.75
2017-10-19T04:43:38.840Z,100405.58
2017-10-19T04:44:52.877Z,100398.99
2017-10-19T04:46:01.899Z,100407.30
2017-10-19T04:47:25.222Z,100407.50
2017-10-19T04:51:10.080Z,100410.23
2017-10-19T04:52:20.669Z,100404.69
2017-10-19T04:53:27.567Z,100412.23
2017-10-19T04:54:36.023Z,100407.81
2017-10-19T04:55:43.393Z,100405.30
2017-10-19T04:56:51.022Z,100408.24
2017-10-19T05:03:30.306Z,100409.41
2017-10-19T05:04:39.762Z,100413.64
2017-10-19T05:05:56.236Z,100409.91
2017-10-19T05:07:06.623Z,100408.31
2017-10-19T05:14:09.412Z,100414.60
2017-10-19T05:15:29.436Z,100410.84
2017-10-19T05:16:47.494Z,100408.39
2017-10-19T05:21:44.898Z,100408.86
2017-10-19T05:22:58.497Z,100408.49
2017-10-19T05:24:45.923Z,100409.12
2017-10-19T05:26:08.226Z,100416.89
2017-10-19T06:17:17.297Z,100439.16
2017-10-19T06:21:00.324Z,100443.81
2017-10-19T06:22:09.382Z,100446.09
2017-10-19T06:23:20.423Z,100448.08
2017-10-19T06:24:39.888Z,100449.91
2017-10-19T06:25:49.087Z,100448.27
2017-10-19T06:26:58.165Z,100453.81
2017-10-19T06:28:08.499Z,100459.00
2017-10-19T06:29:18.367Z,100464.34
2017-10-19T06:30:27.427Z,100456.66
2017-10-19T06:31:33.647Z,100458.73
2017-10-19T06:32:45.299Z,100456.77
2017-10-19T06:33:53.474Z,100453.22
2017-10-19T06:35:00.619Z,100456.39
2017-10-19T06:36:10.265Z,100447.22
2017-10-19T06:37:17.918Z,100446.56
2017-10-19T06:38:24.310Z,100450.61
2017-10-19T06:39:31.670Z,100449.65
2017-10-19T06:40:39.489Z,100457.98
2017-10-19T06:41:46.403Z,100451.02
2017-10-19T06:42:52.705Z,100453.66
2017-10-19T06:44:01.088Z,100454.84
2017-10-19T06:45:08.726Z,100457.69
2017-10-19T06:46:15.786Z,100456.86
2017-10-19T06:47:23.337Z,100457.89
2017-10-19T06:48:31.176Z,100464.22
2017-10-19T06:49:37.351Z,100460.06
2017-10-19T06:50:44.690Z,100463.12
2017-10-19T06:51:51.952Z,100464.34
2017-10-19T06:52:58.944Z,100465.88
2017-10-19T06:54:06.277Z,100465.09
2017-10-19T06:55:13.369Z,100468.63
2017-10-19T06:56:20.252Z,100468.39
2017-10-19T06:57:27.359Z,100471.52
2017-10-19T06:58:33.994Z,100469.67
2017-10-19T06:59:40.936Z,100465.79
2017-10-19T07:00:47.316Z,100467.08
2017-10-19T07:01:53.765Z,100466.83
2017-10-19T07:03:00.073Z,100473.55
2017-10-19T07:04:07.683Z,100470.87
2017-10-19T07:05:14.057Z,100477.70
2017-10-19T07:06:20.205Z,100473.84
2017-10-19T07:07:26.525Z,100473.19
2017-10-19T07:08:32.739Z,100481.08
2017-10-19T07:09:39.260Z,100475.67
2017-10-19T07:10:45.433Z,100478.80
2017-10-19T07:11:51.657Z,100480.41
2017-10-19T07:12:57.901Z,100482.75
2017-10-19T07:14:04.133Z,100479.52
2017-10-19T07:15:10.403Z,100481.36
2017-10-19T07:16:16.554Z,100481.27
2017-10-19T07:17:22.556Z,100475.89
2017-10-19T07:18:28.910Z,100476.05
2017-10-19T07:19:35.950Z,100474.84
2017-10-19T07:20:42.368Z,100471.08
2017-10-19T07:21:48.679Z,100474.15
2017-10-19T07:22:54.895Z,100476.03
2017-10-19T07:24:01.192Z,100470.44
2017-10-19T07:25:07.412Z,100473.50
2017-10-19T07:26:13.418Z,100470.68
2017-10-19T07:27:19.852Z,100477.69
2017-10-19T07:28:26.133Z,100481.59
2017-10-19T07:29:32.321Z,100475.96
2017-10-19T07:30:38.561Z,100477.27
2017-10-19T07:31:44.871Z,100476.48
2017-10-19T07:32:50.665Z,100484.84
2017-10-19T07:33:56.565Z,100476.95
2017-10-19T07:35:03.251Z,100476.68
2017-10-19T07:36:09.680Z,100481.77
2017-10-19T07:37:15.857Z,100484.56
2017-10-19T07:38:22.159Z,100484.23
2017-10-19T07:39:27.923Z,100483.00
2017-10-19T07:40:34.193Z,100488.73
2017-10-19T07:41:40.513Z,100490.09
2017-10-19T07:42:46.763Z,100485.08
2017-10-19T07:43:53.572Z,100485.80
2017-10-19T07:44:59.795Z,100487.00
2017-10-19T07:46:06.210Z,100485.66
2017-10-19T07:47:12.425Z,100481.72
2017-10-19T07:48:19.140Z,100479.58
2017-10-19T07:49:25.565Z,100480.35
2017-10-19T07:50:31.735Z,100476.84
2017-10-19T07:51:38.075Z,100480.48
2017-10-19T07:52:44.765Z,100480.52
2017-10-19T07:53:50.999Z,100478.31
2017-10-19T07:54:57.256Z,100479.12
2017-10-19T07:56:03.644Z,100486.42
2017-10-19T07:57:09.854Z,100480.90
2017-10-19T07:58:16.975Z,100489.27
2017-10-19T07:59:28.919Z,100480.26
2017-10-19T08:00:36.151Z,100481.73
2017-10-19T08:01:47.682Z,100479.28
2017-10-19T08:03:08.840Z,100482.63
2017-10-19T08:07:44.681Z,100485.11
2017-10-19T08:09:10.446Z,100485.16
2017-10-19T08:54:59.483Z,100492.04
2017-10-19T08:56:35.088Z,100498.94
2017-10-19T11:04:47.639Z,100431.79
2017-10-19T11:06:21.375Z,100436.78
2017-10-19T11:07:27.705Z,100432.98
2017-10-19T11:09:09.206Z,100432.80
2017-10-19T11:10:26.736Z,100432.70
2017-10-19T11:11:45.236Z,100434.53
2017-10-19T11:13:07.680Z,100432.33
2017-10-19T11:14:21.550Z,100436.36
2017-10-19T11:46:01.022Z,100409.66
2017-10-19T11:47:08.049Z,100407.58
2017-10-19T11:48:15.124Z,100401.43
2017-10-19T11:49:22.341Z,100399.73
2017-10-19T11:50:29.549Z,100395.88
2017-10-19T11:51:36.752Z,100390.20
2017-10-19T11:52:43.868Z,100392.84
2017-10-19T11:53:50.907Z,100389.84
2017-10-19T11:54:58.177Z,100390.06
2017-10-19T11:56:05.302Z,100384.27
2017-10-19T11:57:12.391Z,100387.39
2017-10-19T11:58:19.743Z,100377.31
2017-10-19T11:59:26.744Z,100379.09
2017-10-19T12:00:33.838Z,100375.95
2017-10-19T12:01:40.984Z,100386.42
2017-10-19T12:02:48.163Z,100379.11
2017-10-19T12:03:55.370Z,100375.35
2017-10-19T12:05:04.229Z,100375.48
2017-10-19T12:06:13.678Z,100377.32
2017-10-19T12:07:20.871Z,100367.81
2017-10-19T12:08:28.048Z,100379.07
2017-10-19T12:09:35.273Z,100368.54
2017-10-19T12:10:44.818Z,100371.50
2017-10-19T12:11:51.829Z,100366.39
2017-10-19T12:12:58.943Z,100369.45
2017-10-19T12:14:06.172Z,100368.41
2017-10-19T12:15:15.112Z,100370.98
2017-10-19T12:16:22.052Z,100362.01
2017-10-19T12:17:28.984Z,100363.73
2017-10-19T12:18:36.081Z,100355.08
2017-10-19T12:19:43.229Z,100350.44
2017-10-19T12:20:50.365Z,100349.80
2017-10-19T12:21:57.507Z,100354.38
2017-10-19T12:23:04.505Z,100354.27
2017-10-19T12:24:11.841Z,100351.63
2017-10-19T12:25:18.963Z,100345.16
2017-10-19T12:26:26.429Z,100351.95
2017-10-19T12:27:34.910Z,100347.48
2017-10-19T12:28:42.214Z,100349.59
2017-10-19T12:29:49.147Z,100351.34
2017-10-19T12:30:56.304Z,100343.95
2017-10-19T12:32:03.854Z,100341.55
2017-10-19T12:33:12.112Z,100345.08
2017-10-19T12:34:20.726Z,100342.64
2017-10-19T12:35:31.264Z,100338.91
2017-10-19T12:36:38.560Z,100337.98
2017-10-19T12:37:46.731Z,100336.83
2017-10-19T12:38:56.653Z,100340.47
2017-10-19T12:40:04.050Z,100336.59
2017-10-19T12:41:11.690Z,100332.31
2017-10-19T12:42:20.563Z,100332.73
2017-10-19T12:43:28.303Z,100332.34
2017-10-19T12:44:36.196Z,100334.48
2017-10-19T12:45:46.600Z,100329.45
2017-10-19T12:46:56.501Z,100326.32
2017-10-19T12:48:04.140Z,100331.64
2017-10-19T12:49:12.249Z,100329.91
2017-10-19T12:50:19.091Z,100329.73
2017-10-19T12:51:28.712Z,100315.23
2017-10-19T12:52:36.510Z,100322.84
2017-10-19T12:53:45.537Z,100312.90
2017-10-19T12:54:53.368Z,100318.34
2017-10-19T12:56:04.919Z,100315.16
2017-10-19T12:57:12.174Z,100308.84
2017-10-19T12:58:20.792Z,100309.84
2017-10-19T12:59:27.573Z,100308.23
2017-10-19T13:00:34.991Z,100304.52
2017-10-19T13:01:41.210Z,100307.39
2017-10-19T13:02:47.289Z,100313.12
2017-10-19T13:03:55.366Z,100307.47
2017-10-19T13:05:02.253Z,100309.88
2017-10-19T13:07:26.070Z,100309.59
2017-10-19T13:08:32.424Z,100308.84
2017-10-19T13:09:38.921Z,100307.28
2017-10-19T13:10:50.634Z,100305.01
2017-10-19T13:11:57.899Z,100307.48
2017-10-19T13:13:05.496Z,100306.59
2017-10-19T13:14:14.161Z,100307.78
2017-10-19T13:15:22.147Z,100306.59
2017-10-19T13:16:29.685Z,100298.55
2017-10-19T13:17:35.927Z,100305.13
2017-10-19T13:18:42.383Z,100305.36
2017-10-19T13:19:48.844Z,100290.20
2017-10-19T13:20:55.614Z,100292.98
2017-10-19T13:22:03.516Z,100292.02
2017-10-19T13:23:11.367Z,100295.32
2017-10-19T13:24:18.901Z,100292.47
2017-10-19T13:25:26.917Z,100302.21
2017-10-19T13:26:38.254Z,100303.91
2017-10-19T13:27:44.074Z,100296.30
2017-10-19T13:28:53.361Z,100297.30
2017-10-19T13:30:00.140Z,100292.06
2017-10-19T13:31:07.994Z,100295.00
2017-10-19T13:32:14.517Z,100288.55
2017-10-19T13:33:22.834Z,100288.34
2017-10-19T13:34:31.017Z,100288.47
2017-10-19T13:35:38.123Z,100294.43
2017-10-19T13:36:48.338Z,100288.19
2017-10-19T13:37:54.667Z,100284.14
2017-10-19T13:39:00.764Z,100274.91
2017-10-19T13:40:06.982Z,100279.27
2017-10-19T13:41:13.020Z,100284.53
2017-10-19T13:42:19.385Z,100290.69
2017-10-19T13:43:28.992Z,100289.72
2017-10-19T13:44:35.718Z,100290.98
2017-10-19T13:45:42.036Z,100288.13
2017-10-19T13:46:48.605Z,100295.23
2017-10-19T13:47:55.654Z,100293.22
2017-10-19T13:49:02.301Z,100298.35
2017-10-19T13:50:08.400Z,100294.48
2017-10-19T13:51:17.103Z,100289.06
2017-10-19T13:52:23.314Z,100288.74
2017-10-19T13:53:29.446Z,100285.84
2017-10-19T13:54:36.571Z,100281.11
2017-10-19T13:55:44.745Z,100287.09
2017-10-19T13:56:51.371Z,100281.77
2017-10-19T13:57:57.797Z,100288.50
2017-10-19T13:59:03.729Z,100280.78
2017-10-19T14:00:10.108Z,100280.30
2017-10-19T14:01:16.171Z,100286.20
2017-10-19T14:02:22.645Z,100280.21
2017-10-19T14:03:29.046Z,100280.48
2017-10-19T14:04:34.791Z,100279.50
2017-10-19T14:05:40.921Z,100282.98
2017-10-19T14:06:47.324Z,100277.63
2017-10-19T14:07:53.598Z,100281.37
2017-10-19T14:08:59.550Z,100275.98
2017-10-19T14:10:05.818Z,100273.84
2017-10-19T14:11:13.031Z,100275.21
2017-10-19T14:12:20.055Z,100281.13
2017-10-19T14:13:27.511Z,100271.71
2017-10-19T14:14:34.887Z,100270.66
2017-10-19T14:15:41.313Z,100271.39
2017-10-19T14:16:47.370Z,100273.39
2017-10-19T14:17:53.287Z,100264.68
2017-10-19T14:19:01.505Z,100264.27
2017-10-19T14:20:07.756Z,100269.48
2017-10-19T14:21:14.380Z,100266.48
2017-10-19T14:22:20.743Z,100270.32
2017-10-19T14:23:27.665Z,100267.48
2017-10-19T14:24:34.006Z,100270.50
2017-10-19T14:25:40.072Z,100271.80
2017-10-19T14:26:46.095Z,100272.14
2017-10-19T14:27:52.143Z,100272.14
2017-10-19T14:28:58.324Z,100265.81
2017-10-19T14:30:05.576Z,100264.13
2017-10-19T14:31:11.280Z,100262.57
2017-10-19T14:32:18.230Z,100258.32
2017-10-19T14:33:24.745Z,100258.94
2017-10-19T14:34:30.938Z,100258.36
2017-10-19T14:35:37.067Z,100264.30
2017-10-19T14:36:43.146Z,100259.68
2017-10-19T14:37:48.953Z,100258.94
2017-10-19T14:38:54.917Z,100256.75
2017-10-19T14:40:01.151Z,100251.38
2017-10-19T14:41:07.081Z,100244.63
2017-10-19T14:42:13.072Z,100245.69
2017-10-19T14:43:20.409Z,100252.08
2017-10-19T14:44:30.559Z,100246.85
2017-10-19T14:45:36.818Z,100241.39
2017-10-19T14:46:43.277Z,100243.84
2017-10-19T14:47:50.057Z,100244.31
2017-10-19T14:48:56.523Z,100240.30
2017-10-19T14:50:02.213Z,100246.91
2017-10-19T14:51:08.430Z,100244.81
2017-10-19T14:52:14.679Z,100241.39
2017-10-19T14:53:26.960Z,100239.48
2017-10-19T14:54:33.961Z,100235.92
2017-10-19T14:55:41.321Z,100236.47
2017-10-19T14:56:51.065Z,100237.37
2017-10-19T14:58:26.145Z,100237.21
2017-10-19T16:23:06.164Z,100255.56
2017-10-19T16:24:20.538Z,100254.37
2017-10-19T16:25:36.353Z,100255.07
2017-10-19T16:26:47.249Z,100256.61
2017-10-19T16:28:02.668Z,100255.83
2017-10-19T16:29:19.043Z,100252.47
2017-10-19T16:30:33.307Z,100252.38
2017-10-19T16:31:48.015Z,100258.54
2017-10-19T16:32:57.183Z,100252.85
2017-10-19T16:34:08.625Z,100260.13
2017-10-19T16:35:17.325Z,100258.80
2017-10-19T16:36:30.148Z,100257.91
2017-10-19T16:37:52.189Z,100259.81
2017-10-19T16:39:13.665Z,100257.85
2017-10-19T16:40:23.593Z,100260.92
2017-10-19T16:41:33.033Z,100261.45
2017-10-19T16:44:02.466Z,100263.97
2017-10-19T16:45:35.022Z,100267.19
2017-10-19T16:46:41.341Z,100268.06
2017-10-19T16:49:32.857Z,100265.19
2017-10-19T16:50:41.422Z,100262.03
2017-10-19T16:51:48.355Z,100263.23
2017-10-19T16:52:58.208Z,100265.66
2017-10-19T16:54:09.471Z,100266.25
2017-10-19T16:55:20.062Z,100265.64
2017-10-19T16:56:32.419Z,100265.17
2017-10-19T16:57:47.954Z,100267.16
2017-10-19T17:06:54.055Z,100264.14
2017-10-19T17:08:09.905Z,100271.36
2017-10-19T17:09:30.178Z,100269.27
2017-10-19T17:12:39.168Z,100271.95
2017-10-19T20:57:08.994Z,100323.09
2017-10-19T20:58:15.440Z,100328.62
2017-10-19T20:59:22.255Z,100328.50
2017-10-19T21:00:28.475Z,100325.98
2017-10-19T21:01:35.392Z,100327.00
2017-10-19T21:02:43.545Z,100322.96
2017-10-19T21:03:51.026Z,100324.45
2017-10-19T21:04:57.941Z,100319.84
2017-10-19T21:06:04.649Z,100324.73
2017-10-19T21:07:12.578Z,100330.05
2017-10-19T21:08:19.127Z,100324.79
2017-10-19T21:09:25.614Z,100324.02
2017-10-19T21:10:33.290Z,100328.82
2017-10-19T21:11:40.828Z,100323.78
2017-10-19T21:14:02.533Z,100335.00
2017-10-19T21:15:10.283Z,100323.97
2017-10-19T21:16:20.475Z,100325.40
2017-10-19T21:17:29.134Z,100327.06
2017-10-19T21:18:35.453Z,100324.41
2017-10-19T21:19:43.021Z,100328.09
2017-10-19T21:20:52.897Z,100321.77
2017-10-19T21:22:00.219Z,100323.57
2017-10-19T21:23:07.693Z,100317.43
2017-10-19T21:24:15.707Z,100319.75
2017-10-19T21:25:22.080Z,100316.90
2017-10-19T21:26:30.129Z,100318.24
2017-10-19T21:31:47.462Z,100325.91
2017-10-19T21:32:53.868Z,100324.64
2017-10-19T21:34:00.856Z,100316.45
2017-10-19T21:38:32.500Z,100320.73
2017-10-19T21:39:40.355Z,100320.09
2017-10-19T21:40:46.760Z,100317.46
2017-10-19T21:41:54.027Z,100319.42
2017-10-19T21:43:01.753Z,100313.55
2017-10-19T21:44:09.321Z,100319.12
2017-10-19T21:45:16.593Z,100324.77
2017-10-19T21:46:24.053Z,100323.11
2017-10-19T21:47:30.590Z,100323.39
2017-10-19T21:48:36.979Z,100325.08
2017-10-19T21:49:44.424Z,100322.52
2017-10-19T21:50:52.885Z,100325.42
2017-10-19T21:51:59.901Z,100321.09
2017-10-19T21:53:06.228Z,100314.47
2017-10-19T21:54:13.054Z,100318.88
2017-10-19T21:55:19.481Z,100316.29
2017-10-19T21:56:27.319Z,100318.55
2017-10-19T21:57:34.488Z,100312.76
2017-10-19T21:58:41.878Z,100312.78
2017-10-19T21:59:48.526Z,100318.78
2017-10-19T22:00:54.409Z,100316.38
2017-10-19T22:02:01.647Z,100305.05
2017-10-19T22:03:07.653Z,100306.67
2017-10-19T22:04:14.684Z,100306.62
2017-10-19T22:05:21.790Z,100300.41
2017-10-19T22:06:29.338Z,100311.50
2017-10-19T22:07:36.673Z,100307.02
2017-10-19T22:08:43.492Z,100305.39
2017-10-19T22:09:49.798Z,100307.87
2017-10-19T22:10:56.948Z,100303.45
2017-10-19T22:12:03.891Z,100303.48
2017-10-19T22:13:14.653Z,100306.22
2017-10-19T22:14:21.815Z,100307.94
2017-10-19T22:15:30.778Z,100309.25
2017-10-19T22:16:40.099Z,100302.42
2017-10-19T22:17:53.113Z,100297.52
2017-10-19T22:19:01.478Z,100301.48
2017-10-19T22:20:09.527Z,100293.95
2017-10-19T22:21:19.576Z,100303.34
2017-10-19T22:22:25.942Z,100294.98
2017-10-19T22:23:32.250Z,100291.84
2017-10-19T22:24:39.534Z,100299.66
2017-10-19T22:26:57.440Z,100297.44
2017-10-19T22:28:04.661Z,100302.03
2017-10-19T22:29:12.712Z,100296.73
2017-10-19T22:30:22.230Z,100303.14
2017-10-19T22:31:29.738Z,100305.14
2017-10-19T22:32:36.037Z,100300.06
2017-10-19T22:33:43.388Z,100300.29
2017-10-19T22:34:51.084Z,100305.45
2017-10-19T22:35:58.240Z,100302.91
2017-10-19T22:37:05.281Z,100307.25
2017-10-19T22:38:15.389Z,100302.57
2017-10-19T22:39:21.975Z,100299.14
2017-10-19T22:40:29.846Z,100297.77
2017-10-19T22:41:36.367Z,100292.72
2017-10-19T22:42:42.696Z,100297.17
2017-10-19T22:43:49.303Z,100288.91
2017-10-19T22:44:55.815Z,100291.04
2017-10-19T22:46:02.230Z,100292.47
2017-10-19T22:47:08.560Z,100298.46
2017-10-19T22:48:14.852Z,100294.81
2017-10-19T22:49:21.479Z,100302.42
2017-10-19T22:50:27.886Z,100295.16
2017-10-19T22:51:34.096Z,100293.92
2017-10-19T22:52:40.307Z,100298.20
2017-10-19T22:53:47.551Z,100292.24
2017-10-19T22:54:54.882Z,100294.81
2017-10-19T22:56:02.105Z,100292.36
2017-10-19T22:57:11.406Z,100294.52
2017-10-19T22:58:18.412Z,100291.47
2017-10-19T22:59:24.733Z,100293.21
2017-10-19T23:00:31.478Z,100292.91
2017-10-19T23:01:37.572Z,100294.95
2017-10-19T23:02:46.102Z,100295.70
2017-10-19T23:03:53.971Z,100290.38
2017-10-19T23:05:01.316Z,100295.30
2017-10-19T23:06:08.125Z,100295.48
2017-10-19T23:07:14.653Z,100293.59
2017-10-19T23:08:21.192Z,100294.95
2017-10-19T23:09:28.494Z,100295.44
2017-10-19T23:10:36.508Z,100295.84